createdAt,value
2018-09-02T00:00:11.530Z,16.00
2018-09-02T00:02:40.764Z,16.00
2018-09-02T00:05:11.332Z,16.10
2018-09-02T00:07:40.957Z,16.10
2018-09-02T00:10:11.631Z,16.10
2018-09-02T00:12:44.110Z,16.00
2018-09-02T00:15:13.796Z,16.00
2018-09-02T00:17:46.404Z,15.90
2018-09-02T00:20:16.545Z,15.90
2018-09-02T00:22:45.491Z,15.90
2018-09-02T00:25:15.634Z,15.90
2018-09-02T00:27:53.499Z,15.90
2018-09-02T00:30:31.148Z,15.90
2018-09-02T00:33:01.813Z,15.90
2018-09-02T00:35:32.704Z,16.00
2018-09-02T00:38:06.426Z,15.90
2018-09-02T00:40:36.675Z,15.80
2018-09-02T00:43:08.140Z,15.90
2018-09-02T00:45:39.105Z,15.90
2018-09-02T00:48:10.565Z,15.90
2018-09-02T00:50:41.700Z,15.90
2018-09-02T00:53:11.055Z,15.90
2018-09-02T00:55:40.687Z,15.90
2018-09-02T00:58:10.821Z,15.90
2018-09-02T01:00:41.178Z,15.90
2018-09-02T01:03:11.234Z,16.00
2018-09-02T01:05:41.322Z,16.00
2018-09-02T01:08:11.295Z,16.00
2018-09-02T01:10:41.206Z,15.90
2018-09-02T01:13:15.928Z,16.00
2018-09-02T01:15:48.310Z,16.00
2018-09-02T01:18:18.408Z,16.00
2018-09-02T01:20:48.128Z,16.10
2018-09-02T01:23:21.289Z,16.10
2018-09-02T01:25:50.563Z,16.10
2018-09-02T01:28:20.930Z,15.90
2018-09-02T01:30:50.980Z,15.90
2018-09-02T01:33:23.111Z,16.00
2018-09-02T01:35:52.813Z,16.00
2018-09-02T01:38:22.152Z,16.00
2018-09-02T01:40:51.892Z,16.00
2018-09-02T01:43:27.642Z,16.00
2018-09-02T01:45:57.843Z,16.00
2018-09-02T01:48:28.069Z,16.00
2018-09-02T01:50:57.339Z,16.00
2018-09-02T01:53:27.922Z,16.00
2018-09-02T01:55:56.943Z,16.00
2018-09-02T01:58:26.143Z,16.00
2018-09-02T02:00:54.909Z,15.90
2018-09-02T02:03:26.267Z,15.90
2018-09-02T02:05:56.006Z,15.90
2018-09-02T02:08:25.578Z,15.90
2018-09-02T02:10:55.158Z,15.80
2018-09-02T02:13:27.269Z,15.80
2018-09-02T02:15:58.258Z,15.70
2018-09-02T02:18:27.930Z,15.70
2018-09-02T02:20:58.770Z,15.70
2018-09-02T02:23:29.601Z,15.80
2018-09-02T02:25:59.439Z,15.80
2018-09-02T02:28:29.310Z,15.90
2018-09-02T02:31:00.310Z,15.80
2018-09-02T02:33:30.851Z,15.80
2018-09-02T02:36:01.080Z,15.70
2018-09-02T02:38:32.588Z,15.80
2018-09-02T02:41:04.466Z,15.70
2018-09-02T02:43:34.910Z,15.60
2018-09-02T02:46:05.278Z,15.70
2018-09-02T02:48:34.669Z,15.70
2018-09-02T02:51:04.096Z,15.70
2018-09-02T02:53:34.908Z,15.80
2018-09-02T02:56:04.612Z,15.70
2018-09-02T02:58:35.083Z,15.80
2018-09-02T03:01:06.654Z,15.70
2018-09-02T03:03:36.770Z,15.80
2018-09-02T03:06:07.425Z,15.80
2018-09-02T03:08:37.012Z,15.80
2018-09-02T03:11:13.743Z,15.80
2018-09-02T03:13:43.051Z,15.90
2018-09-02T03:16:12.261Z,15.90
2018-09-02T03:18:42.915Z,15.90
2018-09-02T03:21:11.551Z,15.90
2018-09-02T03:23:45.203Z,15.90
2018-09-02T03:26:15.113Z,15.90
2018-09-02T03:28:46.405Z,15.90
2018-09-02T03:31:15.939Z,16.00
2018-09-02T03:33:46.136Z,15.90
2018-09-02T03:36:15.571Z,15.90
2018-09-02T03:38:46.743Z,15.90
2018-09-02T03:41:16.158Z,15.90
2018-09-02T03:43:44.708Z,15.80
2018-09-02T03:46:14.030Z,15.90
2018-09-02T03:48:43.638Z,15.90
2018-09-02T03:51:12.740Z,15.80
2018-09-02T03:53:42.156Z,15.80
2018-09-02T03:56:11.553Z,15.80
2018-09-02T03:58:42.209Z,15.80
2018-09-02T04:01:11.926Z,15.80
2018-09-02T04:03:40.545Z,15.80
2018-09-02T04:06:10.819Z,15.80
2018-09-02T04:08:40.485Z,15.80
2018-09-02T04:11:10.687Z,15.80
2018-09-02T04:13:39.728Z,15.80
2018-09-02T04:16:09.991Z,15.80
2018-09-02T04:18:39.394Z,15.80
2018-09-02T04:21:09.251Z,15.80
2018-09-02T04:23:39.001Z,15.80
2018-09-02T04:26:13.156Z,15.80
2018-09-02T04:28:42.362Z,15.80
2018-09-02T04:31:12.985Z,15.80
2018-09-02T04:33:43.548Z,15.80
2018-09-02T04:36:12.450Z,15.80
2018-09-02T04:38:42.470Z,15.80
2018-09-02T04:41:11.396Z,15.80
2018-09-02T04:43:40.775Z,15.70
2018-09-02T04:46:11.217Z,15.70
2018-09-02T04:48:40.549Z,15.80
2018-09-02T04:51:10.087Z,15.80
2018-09-02T04:53:38.617Z,15.70
2018-09-02T04:56:09.485Z,15.80
2018-09-02T04:58:40.582Z,15.80
2018-09-02T05:01:10.476Z,15.80
2018-09-02T05:03:40.955Z,15.80
2018-09-02T05:06:10.656Z,15.80
2018-09-02T05:08:40.632Z,15.70
2018-09-02T05:11:09.712Z,15.70
2018-09-02T05:13:40.505Z,15.70
2018-09-02T05:16:09.991Z,15.70
2018-09-02T05:18:39.908Z,15.70
2018-09-02T05:21:08.772Z,15.70
2018-09-02T05:23:38.032Z,15.70
2018-09-02T05:26:07.876Z,15.60
2018-09-02T05:28:36.538Z,15.60
2018-09-02T05:31:06.249Z,15.60
2018-09-02T05:33:35.489Z,15.60
2018-09-02T05:36:05.538Z,15.50
2018-09-02T05:38:34.478Z,15.50
2018-09-02T05:41:04.525Z,15.50
2018-09-02T05:43:33.918Z,15.50
2018-09-02T05:46:03.105Z,15.50
2018-09-02T05:48:32.260Z,15.50
2018-09-02T05:51:02.597Z,15.50
2018-09-02T05:53:35.598Z,15.60
2018-09-02T05:56:09.333Z,15.50
2018-09-02T05:58:39.149Z,15.60
2018-09-02T06:01:34.374Z,15.60
2018-09-02T06:04:05.512Z,15.60
2018-09-02T06:06:36.825Z,15.60
2018-09-02T06:09:11.218Z,15.60
2018-09-02T06:11:41.220Z,15.60
2018-09-02T06:14:13.239Z,15.60
2018-09-02T06:16:43.677Z,15.60
2018-09-02T06:19:13.647Z,15.60
2018-09-02T06:21:50.927Z,15.60
2018-09-02T06:24:22.288Z,15.60
2018-09-02T06:26:59.434Z,15.60
2018-09-02T06:29:29.665Z,15.60
2018-09-02T06:32:01.140Z,15.70
2018-09-02T06:34:31.480Z,15.60
2018-09-02T06:37:02.510Z,15.60
2018-09-02T06:39:33.713Z,15.70
2018-09-02T06:42:06.033Z,15.60
2018-09-02T06:44:38.531Z,15.60
2018-09-02T06:47:08.519Z,15.60
2018-09-02T06:49:40.387Z,15.70
2018-09-02T06:52:11.581Z,15.60
2018-09-02T06:54:42.692Z,15.50
2018-09-02T06:57:19.921Z,15.60
2018-09-02T06:59:57.634Z,15.60
2018-09-02T07:02:39.620Z,15.60
2018-09-02T07:10:25.908Z,15.60
2018-09-02T07:13:02.088Z,15.60
2018-09-02T07:15:55.041Z,15.60
2018-09-02T07:24:58.381Z,15.90
2018-09-02T07:31:26.020Z,15.80
2018-09-02T07:37:31.313Z,15.90
2018-09-02T07:40:03.488Z,15.90
2018-09-02T07:42:33.705Z,15.90
2018-09-02T07:45:13.628Z,15.90
2018-09-02T07:47:46.475Z,16.00
2018-09-02T07:50:17.650Z,15.90
2018-09-02T07:52:48.267Z,16.00
2018-09-02T07:55:18.871Z,16.00
2018-09-02T07:57:50.466Z,16.00
2018-09-02T08:00:22.251Z,16.10
2018-09-02T08:02:53.818Z,16.10
2018-09-02T08:05:24.623Z,16.10
2018-09-02T08:07:55.124Z,16.20
2018-09-02T08:10:26.080Z,16.30
2018-09-02T08:12:59.316Z,16.10
2018-09-02T08:15:30.198Z,16.20
2018-09-02T08:18:00.923Z,16.10
2018-09-02T08:20:31.278Z,16.00
2018-09-02T08:23:01.740Z,15.90
2018-09-02T08:25:32.380Z,15.90
2018-09-02T08:28:02.961Z,15.90
2018-09-02T08:30:33.077Z,15.90
2018-09-02T08:33:02.141Z,15.90
2018-09-02T08:35:33.862Z,15.80
2018-09-02T08:38:03.446Z,15.80
2018-09-02T08:40:36.442Z,15.80
2018-09-02T08:43:07.194Z,15.90
2018-09-02T08:45:39.731Z,15.80
2018-09-02T08:48:09.449Z,15.70
2018-09-02T08:50:39.158Z,15.70
2018-09-02T08:53:11.020Z,15.70
2018-09-02T08:55:43.409Z,15.70
2018-09-02T08:58:17.101Z,15.60
2018-09-02T09:00:46.143Z,15.70
2018-09-02T09:03:17.213Z,15.70
2018-09-02T09:05:51.674Z,15.80
2018-09-02T09:08:22.868Z,15.70
2018-09-02T09:10:54.305Z,15.70
2018-09-02T09:13:24.935Z,15.70
2018-09-02T09:15:56.221Z,15.70
2018-09-02T09:18:34.863Z,15.70
2018-09-02T09:21:04.934Z,15.70
2018-09-02T09:23:35.038Z,15.80
2018-09-02T09:26:05.089Z,15.80
2018-09-02T09:28:35.532Z,15.80
2018-09-02T09:31:04.741Z,15.80
2018-09-02T09:37:12.110Z,15.90
2018-09-02T09:39:42.961Z,15.90
2018-09-02T09:42:13.852Z,16.00
2018-09-02T09:44:46.584Z,16.00
2018-09-02T09:47:17.270Z,16.10
2018-09-02T09:49:47.646Z,16.10
2018-09-02T09:52:21.985Z,16.00
2018-09-02T09:54:51.935Z,16.00
2018-09-02T09:57:22.412Z,16.10
2018-09-02T09:59:52.707Z,16.10
2018-09-02T10:02:26.615Z,16.10
2018-09-02T10:05:00.303Z,16.00
2018-09-02T10:07:29.594Z,16.00
2018-09-02T10:10:07.299Z,16.10
2018-09-02T10:12:37.980Z,15.90
2018-09-02T10:15:08.280Z,16.00
2018-09-02T10:17:38.147Z,16.20
2018-09-02T10:20:07.585Z,16.30
2018-09-02T10:22:38.565Z,16.30
2018-09-02T10:25:08.777Z,16.30
2018-09-02T10:27:40.547Z,16.30
2018-09-02T10:30:10.796Z,16.20
2018-09-02T10:32:41.421Z,16.20
2018-09-02T10:35:12.610Z,16.00
2018-09-02T10:37:44.680Z,16.10
2018-09-02T10:40:16.632Z,16.00
2018-09-02T10:42:47.201Z,16.00
2018-09-02T10:45:17.874Z,15.80
2018-09-02T10:47:49.149Z,15.90
2018-09-02T10:50:19.300Z,15.90
2018-09-02T10:52:48.656Z,15.90
2018-09-02T10:55:21.323Z,16.00
2018-09-02T10:57:54.332Z,16.00
2018-09-02T11:00:23.460Z,16.00
2018-09-02T11:02:52.891Z,16.00
2018-09-02T11:05:22.415Z,16.00
2018-09-02T11:07:52.136Z,16.10
2018-09-02T11:10:21.301Z,16.10
2018-09-02T11:12:50.402Z,16.10
2018-09-02T11:15:20.641Z,16.20
2018-09-02T11:17:50.524Z,16.20
2018-09-02T11:20:19.937Z,16.30
2018-09-02T11:22:50.590Z,16.30
2018-09-02T11:25:22.305Z,16.40
2018-09-02T11:27:52.020Z,16.50
2018-09-02T11:30:21.743Z,16.50
2018-09-02T11:32:51.594Z,16.40
2018-09-02T11:35:23.306Z,16.40
2018-09-02T11:37:53.848Z,16.40
2018-09-02T11:40:24.913Z,16.30
2018-09-02T11:42:57.620Z,16.30
2018-09-02T11:45:30.969Z,16.20
2018-09-02T11:48:03.324Z,16.20
2018-09-02T11:50:37.029Z,16.20
2018-09-02T11:53:07.343Z,16.20
2018-09-02T11:55:37.927Z,16.10
2018-09-02T11:58:07.330Z,15.90
2018-09-02T12:00:37.474Z,16.10
2018-09-02T12:03:07.151Z,16.10
2018-09-02T12:05:37.325Z,16.10
2018-09-02T12:08:07.303Z,16.20
2018-09-02T12:10:36.636Z,16.10
2018-09-02T12:13:06.627Z,16.10
2018-09-02T12:15:36.494Z,15.90
2018-09-02T12:18:06.442Z,15.90
2018-09-02T12:20:36.458Z,15.90
2018-09-02T12:23:06.382Z,15.80
2018-09-02T12:25:35.764Z,15.90
2018-09-02T12:28:05.040Z,15.80
2018-09-02T12:30:33.657Z,15.90
2018-09-02T12:33:03.150Z,15.80
2018-09-02T12:35:31.824Z,15.80
2018-09-02T12:38:04.579Z,15.80
2018-09-02T12:40:35.081Z,15.70
2018-09-02T12:43:06.132Z,15.70
2018-09-02T12:45:36.671Z,15.70
2018-09-02T12:48:12.315Z,15.60
2018-09-02T12:50:41.852Z,15.50
2018-09-02T12:53:11.995Z,15.50
2018-09-02T12:55:41.865Z,15.40
2018-09-02T12:58:12.742Z,15.40
2018-09-02T13:00:42.536Z,15.40
2018-09-02T13:03:11.841Z,15.40
2018-09-02T13:05:41.199Z,15.40
2018-09-02T13:08:15.582Z,15.40
2018-09-02T13:10:45.238Z,15.40
2018-09-02T13:13:15.037Z,15.50
2018-09-02T13:15:46.105Z,15.60
2018-09-02T13:18:15.705Z,15.70
2018-09-02T13:20:45.509Z,15.60
2018-09-02T13:23:19.366Z,15.60
2018-09-02T13:25:50.310Z,15.60
2018-09-02T13:28:20.431Z,15.70
2018-09-02T13:30:55.625Z,15.60
2018-09-02T13:33:27.205Z,15.70
2018-09-02T13:35:56.837Z,15.70
2018-09-02T13:38:27.120Z,15.70
2018-09-02T13:40:59.237Z,15.60
2018-09-02T13:43:28.571Z,15.60
2018-09-02T13:45:58.676Z,15.60
2018-09-02T13:48:32.495Z,15.70
2018-09-02T13:51:02.507Z,15.70
2018-09-02T13:53:32.832Z,15.60
2018-09-02T13:56:02.114Z,15.60
2018-09-02T13:58:33.352Z,15.70
2018-09-02T14:01:03.012Z,15.70
2018-09-02T14:03:33.483Z,15.60
2018-09-02T14:06:04.481Z,15.60
2018-09-02T14:08:33.437Z,15.60
2018-09-02T14:11:03.274Z,15.60
2018-09-02T14:13:32.825Z,15.70
2018-09-02T14:16:02.052Z,15.70
2018-09-02T14:18:33.133Z,15.60
2018-09-02T14:21:02.309Z,15.60
2018-09-02T14:23:32.064Z,15.70
2018-09-02T14:26:02.217Z,15.70
2018-09-02T14:28:39.028Z,15.60
2018-09-02T14:31:10.666Z,15.60
2018-09-02T14:33:40.955Z,15.60
2018-09-02T14:36:11.091Z,15.70
2018-09-02T14:38:42.277Z,15.60
2018-09-02T14:41:12.123Z,15.70
2018-09-02T14:43:42.283Z,15.70
2018-09-02T14:46:12.107Z,15.80
2018-09-02T14:48:43.405Z,15.70
2018-09-02T14:51:17.540Z,15.70
2018-09-02T14:53:47.820Z,15.60
2018-09-02T14:56:17.903Z,15.70
2018-09-02T14:58:49.653Z,15.70
2018-09-02T15:01:24.394Z,15.70
2018-09-02T15:03:56.067Z,15.60
2018-09-02T15:06:25.699Z,15.60
2018-09-02T15:08:55.620Z,15.60
2018-09-02T15:11:25.309Z,15.70
2018-09-02T15:13:55.134Z,15.70
2018-09-02T15:16:24.589Z,15.60
2018-09-02T15:18:54.752Z,15.60
2018-09-02T15:21:24.986Z,15.60
2018-09-02T15:23:55.856Z,15.60
2018-09-02T15:26:26.361Z,15.60
2018-09-02T15:28:59.104Z,15.60
2018-09-02T15:31:29.248Z,15.60
2018-09-02T15:34:00.079Z,15.60
2018-09-02T15:36:30.582Z,15.60
2018-09-02T15:39:00.278Z,15.50
2018-09-02T15:41:32.080Z,15.50
2018-09-02T15:44:02.762Z,15.40
2018-09-02T15:46:32.056Z,15.50
2018-09-02T15:49:02.165Z,15.60
2018-09-02T15:51:33.335Z,15.60
2018-09-02T15:54:04.222Z,15.60
2018-09-02T15:56:36.359Z,15.60
2018-09-02T15:59:07.076Z,15.60
2018-09-02T16:01:40.284Z,15.70
2018-09-02T16:04:15.789Z,15.70
2018-09-02T16:06:51.839Z,15.60
2018-09-02T16:09:22.702Z,15.60
2018-09-02T16:11:56.738Z,15.60
2018-09-02T16:14:27.906Z,15.60
2018-09-02T16:16:57.603Z,15.50
2018-09-02T16:19:26.962Z,15.50
2018-09-02T16:21:56.991Z,15.50
2018-09-02T16:24:26.172Z,15.50
2018-09-02T16:26:56.785Z,15.50
2018-09-02T16:29:26.527Z,15.50
2018-09-02T16:31:57.110Z,15.50
2018-09-02T16:34:28.375Z,15.50
2018-09-02T16:37:00.435Z,15.40
2018-09-02T16:39:30.883Z,15.40
2018-09-02T16:42:02.544Z,15.40
2018-09-02T16:44:33.672Z,15.50
2018-09-02T16:47:14.294Z,15.40
2018-09-02T16:49:44.034Z,15.40
2018-09-02T16:52:19.065Z,15.40
2018-09-02T16:54:49.699Z,15.40
2018-09-02T16:57:20.322Z,15.40
2018-09-02T16:59:51.489Z,15.40
2018-09-02T17:02:21.337Z,15.40
2018-09-02T17:04:55.280Z,15.40
2018-09-02T17:07:29.557Z,15.40
2018-09-02T17:10:00.385Z,15.40
2018-09-02T17:12:29.366Z,15.40
2018-09-02T17:14:58.414Z,15.40
2018-09-02T17:17:27.491Z,15.40
2018-09-02T17:19:58.685Z,15.40
2018-09-02T17:22:30.552Z,15.30
2018-09-02T17:25:00.514Z,15.30
2018-09-02T17:27:31.194Z,15.30
2018-09-02T17:30:02.032Z,15.30
2018-09-02T17:32:33.004Z,15.30
2018-09-02T17:35:02.732Z,15.30
2018-09-02T17:37:33.157Z,15.40
2018-09-02T17:40:02.805Z,15.30
2018-09-02T17:42:33.015Z,15.30
2018-09-02T17:45:03.434Z,15.30
2018-09-02T17:47:33.109Z,15.30
2018-09-02T17:50:04.940Z,15.30
2018-09-02T17:52:34.960Z,15.30
2018-09-02T17:55:08.872Z,15.40
2018-09-02T17:57:40.953Z,15.40
2018-09-02T18:00:12.264Z,15.40
2018-09-02T18:02:41.271Z,15.40
2018-09-02T18:05:10.504Z,15.40
2018-09-02T18:07:40.969Z,15.40
2018-09-02T18:10:11.329Z,15.40
2018-09-02T18:12:42.762Z,15.40
2018-09-02T18:15:32.241Z,15.30
2018-09-02T18:18:23.614Z,15.30
2018-09-02T18:20:54.674Z,15.30
2018-09-02T18:23:27.701Z,15.40
2018-09-02T18:28:52.682Z,15.40
2018-09-02T18:31:22.145Z,15.40
2018-09-02T18:33:51.110Z,15.40
2018-09-02T18:36:20.059Z,15.40
2018-09-02T18:38:49.139Z,15.30
2018-09-02T18:41:18.361Z,15.30
2018-09-02T18:43:49.901Z,15.40
2018-09-02T18:46:19.038Z,15.20
2018-09-02T18:48:47.828Z,15.20
2018-09-02T18:51:16.520Z,15.30
2018-09-02T18:53:45.415Z,15.20
2018-09-02T18:56:14.814Z,15.20
2018-09-02T18:58:44.198Z,15.30
2018-09-02T19:01:13.549Z,15.30
2018-09-02T19:03:42.643Z,15.30
2018-09-02T19:06:11.468Z,15.20
2018-09-02T19:08:40.828Z,15.30
2018-09-02T19:11:09.958Z,15.20
2018-09-02T19:13:38.902Z,15.30
2018-09-02T19:16:07.826Z,15.20
2018-09-02T19:18:36.695Z,15.30
2018-09-02T19:21:05.751Z,15.30
2018-09-02T19:23:34.866Z,15.30
2018-09-02T19:26:04.448Z,15.30
2018-09-02T19:28:34.963Z,15.30
2018-09-02T19:31:04.584Z,15.30
2018-09-02T19:33:35.919Z,15.30
2018-09-02T19:36:05.381Z,15.30
2018-09-02T19:38:34.794Z,15.20
2018-09-02T19:41:03.944Z,15.20
2018-09-02T19:43:32.527Z,15.20
2018-09-02T19:46:01.236Z,15.20
2018-09-02T19:48:30.140Z,15.20
2018-09-02T19:50:59.385Z,15.10
2018-09-02T19:53:28.208Z,15.10
2018-09-02T19:55:57.249Z,15.00
2018-09-02T19:58:26.357Z,15.00
2018-09-02T20:00:55.075Z,15.00
2018-09-02T20:03:24.082Z,15.10
2018-09-02T20:05:53.083Z,15.10
2018-09-02T20:08:21.824Z,15.20
2018-09-02T20:10:50.816Z,15.10
2018-09-02T20:13:19.946Z,15.20
2018-09-02T20:15:48.851Z,15.20
2018-09-02T20:18:17.842Z,15.20
2018-09-02T20:20:46.495Z,15.10
2018-09-02T20:23:14.964Z,15.10
2018-09-02T20:25:43.710Z,15.10
2018-09-02T20:28:13.215Z,15.10
2018-09-02T20:30:43.731Z,15.20
2018-09-02T20:33:13.008Z,15.20
2018-09-02T20:35:42.019Z,15.30
2018-09-02T20:38:10.954Z,15.30
2018-09-02T20:40:40.675Z,15.30
2018-09-02T20:43:10.296Z,15.40
2018-09-02T20:45:39.074Z,15.30
2018-09-02T20:48:09.244Z,15.30
2018-09-02T20:50:38.095Z,15.40
2018-09-02T20:53:07.662Z,15.30
2018-09-02T20:55:36.830Z,15.30
2018-09-02T20:58:05.903Z,15.40
2018-09-02T21:00:35.013Z,15.30
2018-09-02T21:03:03.969Z,15.40
2018-09-02T21:05:33.068Z,15.30
2018-09-02T21:08:02.175Z,15.30
2018-09-02T21:10:31.030Z,15.30
2018-09-02T21:13:00.127Z,15.30
2018-09-02T21:15:29.001Z,15.30
2018-09-02T21:17:57.913Z,15.30
2018-09-02T21:20:26.610Z,15.30
2018-09-02T21:22:55.590Z,15.30
2018-09-02T21:25:24.342Z,15.30
2018-09-02T21:27:53.529Z,15.30
2018-09-02T21:30:25.231Z,15.20
2018-09-02T21:32:54.750Z,15.30
2018-09-02T21:35:24.034Z,15.30
2018-09-02T21:37:53.090Z,15.30
2018-09-02T21:40:21.969Z,15.30
2018-09-02T21:42:51.052Z,15.30
2018-09-02T21:45:19.900Z,15.30
2018-09-02T21:47:49.192Z,15.30
2018-09-02T21:50:18.079Z,15.30
2018-09-02T21:52:47.052Z,15.30
2018-09-02T21:55:16.506Z,15.30
2018-09-02T21:57:45.755Z,15.30
2018-09-02T22:00:16.601Z,15.20
2018-09-02T22:02:45.543Z,15.20
2018-09-02T22:05:15.635Z,15.20
2018-09-02T22:07:45.945Z,15.20
2018-09-02T22:10:15.012Z,15.20
2018-09-02T22:12:43.824Z,15.20
2018-09-02T22:15:12.295Z,15.20
2018-09-02T22:17:41.061Z,15.30
2018-09-02T22:20:09.847Z,15.20
2018-09-02T22:22:38.516Z,15.20
2018-09-02T22:25:07.972Z,15.20
2018-09-02T22:27:36.881Z,15.20
2018-09-02T22:30:06.674Z,15.20
2018-09-02T22:32:35.675Z,15.30
2018-09-02T22:35:04.636Z,15.30
2018-09-02T22:37:33.605Z,15.30
2018-09-02T22:40:02.465Z,15.30
2018-09-02T22:42:31.328Z,15.30
2018-09-02T22:45:00.016Z,15.30
2018-09-02T22:47:28.914Z,15.30
2018-09-02T22:49:57.558Z,15.30
2018-09-02T22:52:26.575Z,15.30
2018-09-02T22:54:55.268Z,15.20
2018-09-02T22:57:26.737Z,15.20
2018-09-02T22:59:55.416Z,15.30
2018-09-02T23:02:23.921Z,15.20
2018-09-02T23:04:52.808Z,15.20
2018-09-02T23:07:21.680Z,15.20
2018-09-02T23:09:50.680Z,15.30
2018-09-02T23:12:19.850Z,15.30
2018-09-02T23:14:48.357Z,15.30
2018-09-02T23:17:17.037Z,15.30
2018-09-02T23:19:45.810Z,15.20
2018-09-02T23:22:14.290Z,15.30
2018-09-02T23:24:42.900Z,15.30
2018-09-02T23:27:11.325Z,15.30
2018-09-02T23:29:40.072Z,15.20
2018-09-02T23:32:08.807Z,15.20
2018-09-02T23:34:38.005Z,15.20
2018-09-02T23:37:06.722Z,15.20
2018-09-02T23:39:35.531Z,15.20
2018-09-02T23:42:04.259Z,15.20
2018-09-02T23:44:33.150Z,15.20
2018-09-02T23:47:02.174Z,15.30
2018-09-02T23:49:30.973Z,15.20
2018-09-02T23:51:59.760Z,15.20
2018-09-02T23:54:28.540Z,15.10
2018-09-02T23:56:57.750Z,15.20
2018-09-02T23:59:26.716Z,15.30
